Time;durP1;ratioP1;P1;durP2;ratioP2;P2;SDS_P1;SDS_P2;PMS_P1;PMS_P2;Temp;Humidity;BMP_temperature;BMP_pressure;BME280_temperature;BME280_humidity;BME280_pressure;Samples;Min_cycle;Max_cycle;Signal;HPM_P1;HPM_P2
2022/11/19 00:01:25;;;;;;;6.50;3.53;;;2.00;99.90;;;;;;4992649;28;20399;-68
2022/11/19 00:03:50;;;;;;;6.97;3.45;;;2.00;99.90;;;;;;4980198;28;20532;-68
2022/11/19 00:06:25;;;;;;;6.68;3.40;;;2.00;99.90;;;;;;5012429;28;20073;-68
2022/11/19 00:08:50;;;;;;;6.78;3.50;;;2.00;99.90;;;;;;5011406;28;20038;-68
2022/11/19 00:12:53;;;;;;;6.30;3.50;;;2.00;99.90;;;;;;5012454;28;20441;-68
2022/11/19 00:14:04;;;;;;;6.50;3.47;;;1.90;99.90;;;;;;5008989;28;20097;-68
2022/11/19 00:16:30;;;;;;;7.60;3.63;;;1.90;99.90;;;;;;4995746;28;20064;-68
2022/11/19 00:18:55;;;;;;;6.50;3.42;;;1.80;99.90;;;;;;4995856;28;20069;-68
2022/11/19 00:21:21;;;;;;;7.88;3.60;;;1.80;99.90;;;;;;5011528;28;20042;-68
2022/11/19 00:23:46;;;;;;;6.30;3.13;;;1.80;99.90;;;;;;4995241;28;20044;-68
2022/11/19 00:26:13;;;;;;;6.70;3.35;;;1.90;99.90;;;;;;5011966;28;20414;-68
2022/11/19 00:28:40;;;;;;;7.18;3.80;;;1.90;99.90;;;;;;5012339;28;20088;-68
2022/11/19 00:31:11;;;;;;;7.25;3.63;;;1.80;99.90;;;;;;5011425;28;20100;-68
2022/11/19 00:33:39;;;;;;;7.03;3.55;;;1.80;99.90;;;;;;5012315;28;20418;-68
2022/11/19 00:36:07;;;;;;;7.68;3.72;;;1.70;99.90;;;;;;5011516;28;20437;-68
2022/11/19 00:38:34;;;;;;;8.10;3.45;;;1.70;99.90;;;;;;5012195;28;20449;-68
2022/11/19 00:40:59;;;;;;;7.30;3.72;;;1.60;99.90;;;;;;4991934;28;20089;-68
2022/11/19 00:46:10;;;;;;;7.20;3.40;;;1.60;99.90;;;;;;5011068;28;20042;-69
2022/11/19 00:48:37;;;;;;;7.22;3.55;;;1.50;99.90;;;;;;4994750;28;20180;-68
2022/11/19 00:51:02;;;;;;;7.50;3.90;;;1.50;99.90;;;;;;4995536;28;20089;-68
2022/11/19 00:53:28;;;;;;;8.13;4.18;;;1.50;99.90;;;;;;5011846;28;20053;-68
2022/11/19 00:55:53;;;;;;;7.75;3.75;;;1.40;99.90;;;;;;4991693;28;20049;-68
2022/11/19 00:58:19;;;;;;;7.75;3.80;;;1.30;99.90;;;;;;4996217;28;20096;-68
2022/11/19 01:00:45;;;;;;;7.60;3.85;;;1.40;99.90;;;;;;5004923;28;20516;-68
2022/11/19 01:03:11;;;;;;;8.25;3.58;;;1.30;99.90;;;;;;5011065;28;20058;-68
2022/11/19 01:05:37;;;;;;;7.53;4.00;;;1.40;99.90;;;;;;5010822;28;20129;-68
2022/11/19 01:08:02;;;;;;;7.15;4.03;;;1.30;99.90;;;;;;5010386;28;20034;-68
2022/11/19 01:10:28;;;;;;;7.00;3.55;;;1.20;99.90;;;;;;4995426;28;20042;-68
2022/11/19 01:15:38;;;;;;;8.07;3.70;;;1.30;99.90;;;;;;5013493;28;20050;-68
2022/11/19 01:18:03;;;;;;;8.13;4.05;;;1.20;99.90;;;;;;4998726;28;20386;-68
2022/11/19 01:20:29;;;;;;;8.80;3.88;;;1.20;99.90;;;;;;5014609;28;20499;-68
2022/11/19 01:22:54;;;;;;;6.38;3.58;;;1.20;99.90;;;;;;4998773;28;20087;-67
2022/11/19 01:25:20;;;;;;;8.88;3.83;;;1.30;99.90;;;;;;5013348;28;20056;-68
2022/11/19 01:27:45;;;;;;;8.02;4.20;;;1.20;99.90;;;;;;5016379;28;20176;-68
2022/11/19 01:30:11;;;;;;;7.95;4.15;;;1.20;99.90;;;;;;5008598;28;20038;-68
2022/11/19 01:32:37;;;;;;;7.43;3.85;;;1.00;99.90;;;;;;4980331;28;20049;-67
2022/11/19 01:35:03;;;;;;;7.63;3.83;;;1.00;99.90;;;;;;4995260;28;20046;-68
2022/11/19 01:37:29;;;;;;;7.70;3.72;;;1.00;99.90;;;;;;5011758;28;20092;-67
2022/11/19 01:39:54;;;;;;;8.95;4.50;;;1.00;99.90;;;;;;5015322;28;20041;-68
2022/11/19 01:42:49;;;;;;;8.02;4.30;;;1.00;99.90;;;;;;5013782;28;20156;-68
2022/11/19 01:45:27;;;;;;;8.80;5.00;;;1.00;99.90;;;;;;5014723;28;20092;-68
2022/11/19 01:47:55;;;;;;;7.90;4.20;;;1.10;99.90;;;;;;5014849;28;20406;-68
2022/11/19 01:50:22;;;;;;;8.20;4.15;;;1.10;99.90;;;;;;5001905;28;20034;-67
2022/11/19 01:52:48;;;;;;;8.35;4.28;;;1.10;99.90;;;;;;4994961;28;20035;-68
2022/11/19 01:55:15;;;;;;;8.70;4.10;;;0.90;99.90;;;;;;4994932;28;20077;-68
2022/11/19 01:57:41;;;;;;;8.55;4.18;;;0.80;99.90;;;;;;5013470;28;20053;-68
2022/11/19 02:00:08;;;;;;;7.60;3.80;;;0.90;99.90;;;;;;5012754;28;20031;-68
2022/11/19 02:02:33;;;;;;;7.68;3.80;;;0.80;99.90;;;;;;5012518;28;20065;-68
2022/11/19 02:05:00;;;;;;;7.38;4.07;;;0.90;99.90;;;;;;5012175;28;20092;-68
2022/11/19 02:07:28;;;;;;;9.05;4.47;;;0.80;99.90;;;;;;5015445;28;20548;-67
2022/11/19 02:10:04;;;;;;;7.13;3.58;;;0.70;99.90;;;;;;5014326;28;20038;-68
2022/11/19 02:12:54;;;;;;;7.82;4.20;;;0.70;99.90;;;;;;5013369;28;20494;-67
2022/11/19 02:15:38;;;;;;;7.35;3.80;;;0.80;99.90;;;;;;5007172;28;20490;-67
2022/11/19 02:18:23;;;;;;;8.05;4.07;;;0.80;99.90;;;;;;5007726;28;20041;-68
2022/11/19 02:20:54;;;;;;;9.52;4.53;;;0.80;99.90;;;;;;5009378;28;20050;-67
2022/11/19 02:23:37;;;;;;;7.57;3.60;;;0.90;99.90;;;;;;4995205;28;20129;-68
2022/11/19 02:26:29;;;;;;;9.15;3.92;;;0.80;99.90;;;;;;4999484;28;20034;-68
2022/11/19 02:29:28;;;;;;;7.87;3.73;;;0.70;99.90;;;;;;5014119;28;20553;-67
2022/11/19 02:32:24;;;;;;;8.05;4.22;;;0.70;99.90;;;;;;5024704;28;20042;-67
2022/11/19 02:34:56;;;;;;;8.15;4.00;;;0.60;99.90;;;;;;5014814;28;20061;-68
2022/11/19 02:37:48;;;;;;;8.50;3.75;;;0.60;99.90;;;;;;5012850;28;20050;-67
2022/11/19 02:40:21;;;;;;;8.23;4.13;;;0.70;99.90;;;;;;5027237;28;20050;-67
2022/11/19 02:43:07;;;;;;;8.30;4.30;;;0.70;99.90;;;;;;5012012;28;20056;-67
2022/11/19 02:45:42;;;;;;;7.95;4.03;;;0.60;99.90;;;;;;5012867;28;20502;-68
2022/11/19 02:48:20;;;;;;;8.48;4.07;;;0.50;99.90;;;;;;5014807;28;20096;-68
2022/11/19 02:50:50;;;;;;;8.73;4.30;;;0.40;99.90;;;;;;5012630;28;20048;-67
2022/11/19 02:53:16;;;;;;;8.10;3.70;;;0.50;99.90;;;;;;5013456;28;20042;-68
2022/11/19 02:56:09;;;;;;;7.45;4.05;;;0.50;99.90;;;;;;5013602;28;20064;-68
2022/11/19 03:06:45;;;;;;;8.95;3.63;;;0.40;99.90;;;;;;5013195;28;20494;-68
2022/11/19 03:09:11;;;;;;;7.57;3.65;;;0.50;99.90;;;;;;5014291;28;20040;-68
2022/11/19 03:11:36;;;;;;;7.47;3.70;;;0.40;99.90;;;;;;5012533;28;20398;-68
2022/11/19 03:17:14;;;;;;;8.38;4.07;;;0.50;99.90;;;;;;5012184;28;20506;-68
2022/11/19 03:19:47;;;;;;;7.88;3.97;;;0.50;99.90;;;;;;5012804;28;20099;-68
2022/11/19 03:22:33;;;;;;;9.55;4.28;;;0.50;99.90;;;;;;5014163;28;20475;-68
2022/11/19 03:25:06;;;;;;;7.85;4.20;;;0.40;99.90;;;;;;5012891;28;20096;-68
2022/11/19 03:27:42;;;;;;;8.27;4.63;;;0.40;99.90;;;;;;5013408;28;20053;-68
2022/11/19 03:30:10;;;;;;;9.52;4.95;;;0.30;99.90;;;;;;5011348;28;20082;-68
2022/11/19 03:33:02;;;;;;;8.23;3.88;;;0.30;99.90;;;;;;4993418;28;20068;-68
2022/11/19 03:35:35;;;;;;;7.80;4.07;;;0.30;99.90;;;;;;5001651;28;20048;-68
2022/11/19 03:38:05;;;;;;;9.18;4.00;;;0.30;99.90;;;;;;5013131;28;20445;-68
2022/11/19 03:40:33;;;;;;;7.63;3.40;;;0.20;99.90;;;;;;5012626;28;20041;-68
2022/11/19 03:43:02;;;;;;;7.57;4.00;;;0.20;99.90;;;;;;5011920;28;20033;-68
2022/11/19 03:45:36;;;;;;;7.63;3.83;;;0.10;99.90;;;;;;5012500;28;20045;-68
2022/11/19 03:48:03;;;;;;;7.78;3.70;;;0.20;99.90;;;;;;5012325;28;20204;-68
2022/11/19 03:50:49;;;;;;;7.72;4.32;;;0.10;99.90;;;;;;4999818;28;20624;-68
2022/11/19 03:53:16;;;;;;;8.90;4.30;;;0.10;99.90;;;;;;5011192;28;20474;-68
2022/11/19 03:55:50;;;;;;;8.10;4.32;;;0.10;99.90;;;;;;5010082;28;20045;-69
2022/11/19 03:58:15;;;;;;;8.02;4.10;;;0.10;99.90;;;;;;5011166;28;20037;-68
2022/11/19 04:00:41;;;;;;;7.60;3.45;;;0.10;99.90;;;;;;5002264;28;20498;-68
2022/11/19 04:03:07;;;;;;;9.27;4.20;;;0.10;99.90;;;;;;5012017;28;20054;-68
2022/11/19 04:05:32;;;;;;;8.77;4.13;;;0.10;99.90;;;;;;5012291;28;20057;-69
2022/11/19 04:07:59;;;;;;;10.23;4.25;;;0.10;99.90;;;;;;5012248;28;20056;-68
2022/11/19 04:10:24;;;;;;;7.47;3.90;;;0.00;99.90;;;;;;5012425;28;20046;-68
2022/11/19 04:12:50;;;;;;;8.77;3.97;;;0.10;99.90;;;;;;5013442;28;20038;-68
2022/11/19 04:15:16;;;;;;;8.05;3.92;;;0.10;99.90;;;;;;5009838;28;20041;-69
2022/11/19 04:17:41;;;;;;;9.45;4.22;;;0.20;99.90;;;;;;4997758;28;20483;-68
2022/11/19 04:20:07;;;;;;;8.05;3.97;;;0.10;99.90;;;;;;4993581;28;20418;-69
2022/11/19 04:22:33;;;;;;;7.88;3.97;;;0.00;99.90;;;;;;5004684;28;20042;-69
2022/11/19 04:24:59;;;;;;;8.38;4.18;;;-0.10;99.90;;;;;;5011591;28;20072;-68
2022/11/19 04:27:24;;;;;;;8.13;4.28;;;0.00;99.90;;;;;;5012955;28;20084;-69
2022/11/19 04:29:50;;;;;;;7.55;3.95;;;0.00;99.90;;;;;;5001738;28;20069;-69
2022/11/19 04:32:15;;;;;;;8.60;4.22;;;0.00;99.90;;;;;;5001221;28;20490;-69
2022/11/19 04:34:41;;;;;;;7.90;4.28;;;0.00;99.90;;;;;;5013654;28;20429;-69
2022/11/19 04:37:06;;;;;;;7.88;4.10;;;-0.10;99.90;;;;;;4994878;28;20038;-69
2022/11/19 04:39:32;;;;;;;7.68;4.07;;;-0.10;99.90;;;;;;5000064;28;20539;-69
2022/11/19 04:41:57;;;;;;;8.73;4.88;;;-0.20;99.90;;;;;;5011701;28;20080;-68
2022/11/19 04:44:23;;;;;;;9.20;4.72;;;-0.20;99.90;;;;;;5011947;28;20046;-68
2022/11/19 04:46:49;;;;;;;8.93;4.30;;;-0.20;99.90;;;;;;5015684;28;20083;-68
2022/11/19 04:49:14;;;;;;;8.10;4.00;;;-0.10;99.90;;;;;;5012938;28;20041;-68
2022/11/19 04:51:40;;;;;;;9.80;4.50;;;-0.20;99.90;;;;;;5011366;28;20177;-69
2022/11/19 04:54:07;;;;;;;8.32;4.50;;;-0.20;99.90;;;;;;5012553;28;20050;-68
2022/11/19 04:56:33;;;;;;;9.05;4.63;;;-0.20;99.90;;;;;;5004980;28;20045;-69
2022/11/19 04:58:59;;;;;;;8.20;4.50;;;-0.20;99.90;;;;;;5013627;28;20416;-68
2022/11/19 05:01:25;;;;;;;8.23;4.28;;;-0.20;99.90;;;;;;5014885;28;20113;-69
2022/11/19 05:03:50;;;;;;;10.02;4.80;;;-0.30;99.90;;;;;;5015299;28;20441;-68
2022/11/19 05:06:16;;;;;;;7.55;3.83;;;-0.30;99.90;;;;;;5013496;28;20474;-68
2022/11/19 05:08:42;;;;;;;8.60;4.45;;;-0.20;99.90;;;;;;5016820;28;20042;-68
2022/11/19 05:11:07;;;;;;;8.65;4.25;;;-0.30;99.90;;;;;;5013564;28;20026;-68
2022/11/19 05:13:33;;;;;;;9.13;4.22;;;-0.30;99.90;;;;;;5016043;28;20085;-68
2022/11/19 05:15:58;;;;;;;8.25;4.25;;;-0.20;99.90;;;;;;5014979;28;20065;-68
2022/11/19 05:18:24;;;;;;;8.52;4.40;;;-0.20;99.90;;;;;;5015747;28;20041;-68
2022/11/19 05:20:49;;;;;;;8.45;4.40;;;-0.10;99.90;;;;;;5013685;28;20379;-69
2022/11/19 05:23:15;;;;;;;10.73;4.68;;;-0.10;99.90;;;;;;5003600;28;20042;-68
2022/11/19 05:25:40;;;;;;;7.63;3.97;;;-0.10;99.90;;;;;;5014570;28;20046;-69
2022/11/19 05:28:06;;;;;;;7.90;3.72;;;-0.10;99.90;;;;;;5014194;28;20042;-68
2022/11/19 05:30:32;;;;;;;8.85;4.78;;;0.00;99.90;;;;;;5012852;28;20037;-68
2022/11/19 05:32:57;;;;;;;9.07;5.22;;;-0.10;99.90;;;;;;5015284;28;20030;-68
2022/11/19 05:35:23;;;;;;;8.90;5.05;;;-0.20;99.90;;;;;;5014401;28;20048;-68
2022/11/19 05:37:49;;;;;;;10.35;6.68;;;-0.30;99.90;;;;;;5013461;28;20470;-68
2022/11/19 05:40:15;;;;;;;10.52;5.15;;;-0.30;99.90;;;;;;5007700;28;20033;-68
2022/11/19 05:42:41;;;;;;;8.65;4.90;;;-0.30;99.90;;;;;;4985065;28;20042;-68
2022/11/19 05:45:07;;;;;;;9.68;5.20;;;-0.30;99.90;;;;;;4998735;28;20053;-68
2022/11/19 05:47:33;;;;;;;9.27;4.78;;;-0.30;99.90;;;;;;5015061;28;20122;-69
2022/11/19 05:49:58;;;;;;;8.85;5.25;;;-0.30;99.90;;;;;;5011811;28;20121;-68
2022/11/19 05:52:24;;;;;;;9.07;5.50;;;-0.20;99.90;;;;;;5015590;28;20042;-68
2022/11/19 05:54:50;;;;;;;8.50;4.85;;;-0.30;99.90;;;;;;5009971;28;20049;-68
2022/11/19 05:57:15;;;;;;;9.80;5.38;;;-0.50;99.90;;;;;;5013520;28;20548;-68
2022/11/19 05:59:41;;;;;;;11.70;4.60;;;-0.50;99.90;;;;;;5008383;28;20110;-68
2022/11/19 06:02:06;;;;;;;9.65;4.80;;;-0.60;99.90;;;;;;5003011;28;20038;-68
2022/11/19 06:04:32;;;;;;;9.10;4.97;;;-0.60;99.90;;;;;;5014716;28;20516;-68
2022/11/19 06:06:58;;;;;;;9.50;5.72;;;-0.60;99.90;;;;;;5013526;28;20517;-68
2022/11/19 06:09:23;;;;;;;9.25;5.10;;;-0.60;99.90;;;;;;5011818;28;20077;-68
2022/11/19 06:11:49;;;;;;;10.85;6.43;;;-0.70;99.90;;;;;;5012030;28;20041;-68
2022/11/19 06:14:17;;;;;;;10.10;5.47;;;-0.70;99.90;;;;;;4995753;28;20073;-68
2022/11/19 06:16:43;;;;;;;10.55;5.57;;;-0.70;99.90;;;;;;5010341;28;20525;-68
2022/11/19 06:19:08;;;;;;;10.95;4.68;;;-0.60;99.90;;;;;;5012006;28;20042;-68
2022/11/19 06:21:34;;;;;;;10.40;5.82;;;-0.60;99.90;;;;;;5013852;28;20542;-68
2022/11/19 06:23:59;;;;;;;10.27;6.38;;;-0.60;99.90;;;;;;5013164;28;20157;-68
2022/11/19 06:26:27;;;;;;;9.73;5.50;;;-0.60;99.90;;;;;;4991550;28;20133;-68
2022/11/19 06:28:53;;;;;;;10.40;5.60;;;-0.60;99.90;;;;;;4999549;28;20037;-68
2022/11/19 06:31:19;;;;;;;11.02;5.72;;;-0.60;99.90;;;;;;5011719;28;20050;-68
2022/11/19 06:33:45;;;;;;;9.15;5.03;;;-0.70;99.90;;;;;;5014662;28;20076;-68
2022/11/19 06:36:11;;;;;;;9.95;5.80;;;-0.70;99.90;;;;;;5013580;28;20379;-68
2022/11/19 06:38:36;;;;;;;9.70;5.20;;;-0.70;99.90;;;;;;5014441;28;20037;-68
2022/11/19 06:41:02;;;;;;;10.52;6.10;;;-0.70;99.90;;;;;;5013338;28;20026;-68
2022/11/19 06:43:27;;;;;;;10.35;6.00;;;-0.70;99.90;;;;;;5013955;28;20081;-68
2022/11/19 06:45:53;;;;;;;9.88;5.18;;;-0.60;99.90;;;;;;5013214;28;20029;-68
2022/11/19 06:48:19;;;;;;;9.70;6.38;;;-0.70;99.90;;;;;;5014339;28;20517;-68
2022/11/19 06:50:45;;;;;;;11.00;5.90;;;-0.70;99.90;;;;;;5009071;28;20041;-68
2022/11/19 06:53:11;;;;;;;9.48;5.43;;;-0.80;99.90;;;;;;5014827;28;20046;-68
2022/11/19 06:55:36;;;;;;;10.05;5.63;;;-0.80;99.90;;;;;;5011019;28;20124;-68
2022/11/19 06:58:03;;;;;;;10.45;5.70;;;-0.60;99.90;;;;;;5014510;28;20041;-68
2022/11/19 07:00:28;;;;;;;9.02;4.85;;;-0.60;99.90;;;;;;5009613;28;20037;-68
2022/11/19 07:02:54;;;;;;;10.35;6.07;;;-0.70;99.90;;;;;;5013825;28;20112;-68
2022/11/19 07:05:19;;;;;;;9.73;5.50;;;-0.80;99.90;;;;;;4989792;28;20072;-68
2022/11/19 07:07:45;;;;;;;9.82;5.85;;;-0.80;99.90;;;;;;5008656;28;20121;-68
2022/11/19 07:10:11;;;;;;;10.82;6.13;;;-0.80;99.90;;;;;;5009165;28;20044;-68
2022/11/19 07:12:36;;;;;;;10.38;5.32;;;-0.70;99.90;;;;;;5005277;28;20034;-68
2022/11/19 07:15:02;;;;;;;12.68;9.50;;;-0.70;99.90;;;;;;5002734;28;20041;-68
2022/11/19 07:17:28;;;;;;;10.30;6.47;;;-0.70;99.90;;;;;;4990542;28;20482;-68
2022/11/19 07:19:53;;;;;;;9.80;6.10;;;-0.70;99.90;;;;;;5011869;28;20046;-68
2022/11/19 07:22:19;;;;;;;10.45;6.05;;;-0.80;99.90;;;;;;5009872;28;20482;-68
2022/11/19 07:24:44;;;;;;;9.02;5.00;;;-0.80;99.90;;;;;;5000448;28;20451;-68
2022/11/19 07:27:10;;;;;;;11.23;6.60;;;-0.80;99.90;;;;;;5013318;28;20065;-68
2022/11/19 07:29:37;;;;;;;12.70;8.13;;;-0.80;99.90;;;;;;5008515;28;20470;-68
2022/11/19 07:32:03;;;;;;;11.63;6.10;;;-0.90;99.90;;;;;;4995597;28;20099;-69
2022/11/19 07:34:29;;;;;;;13.23;8.23;;;-0.90;99.90;;;;;;5026564;28;20084;-68
2022/11/19 07:36:54;;;;;;;10.98;5.82;;;-0.90;99.90;;;;;;5001632;28;20487;-68
2022/11/19 07:39:20;;;;;;;10.57;6.18;;;-0.90;99.90;;;;;;5011051;28;20121;-68
2022/11/19 07:44:29;;;;;;;11.18;6.53;;;-0.80;99.90;;;;;;5010674;28;20045;-68
2022/11/19 07:46:55;;;;;;;10.00;6.07;;;-0.70;99.90;;;;;;5010261;28;20057;-68
2022/11/19 07:49:21;;;;;;;11.52;6.55;;;-0.70;99.90;;;;;;5012324;28;20087;-68
2022/11/19 07:51:46;;;;;;;12.95;7.47;;;-0.80;99.90;;;;;;5001109;28;20505;-68
2022/11/19 07:54:13;;;;;;;13.43;6.05;;;-0.80;99.90;;;;;;4998914;28;20042;-68
2022/11/19 07:56:38;;;;;;;10.65;5.90;;;-0.80;99.90;;;;;;5010917;28;20042;-68
2022/11/19 07:59:04;;;;;;;11.43;6.30;;;-0.80;99.90;;;;;;5012731;28;20127;-69
2022/11/19 08:01:30;;;;;;;12.90;6.75;;;-0.70;99.90;;;;;;5000540;28;20410;-68
2022/11/19 08:03:56;;;;;;;10.95;6.47;;;-0.70;99.90;;;;;;5010768;28;20061;-69
2022/11/19 08:06:23;;;;;;;11.13;6.45;;;-0.80;99.90;;;;;;5002216;28;20035;-69
2022/11/19 08:08:49;;;;;;;12.55;6.32;;;-0.70;99.90;;;;;;5007306;28;20042;-69
2022/11/19 08:11:15;;;;;;;12.13;6.78;;;-0.60;99.90;;;;;;5011459;28;20048;-69
2022/11/19 08:13:42;;;;;;;12.05;6.97;;;-0.60;99.90;;;;;;5010642;28;20529;-69
2022/11/19 08:19:08;;;;;;;11.63;6.13;;;-0.70;99.90;;;;;;4991766;28;20082;-69
2022/11/19 08:21:35;;;;;;;11.48;7.00;;;-0.60;99.90;;;;;;5004644;28;20042;-69
2022/11/19 08:24:01;;;;;;;12.52;6.38;;;-0.50;99.90;;;;;;5009725;28;20093;-69
2022/11/19 08:26:26;;;;;;;11.30;6.95;;;-0.40;99.90;;;;;;5011633;28;20850;-69
2022/11/19 08:28:52;;;;;;;12.10;6.78;;;-0.30;99.90;;;;;;5015348;28;20120;-69
2022/11/19 08:31:18;;;;;;;10.55;6.47;;;-0.30;99.90;;;;;;5015392;28;20068;-69
2022/11/19 08:33:44;;;;;;;12.32;7.03;;;-0.40;99.90;;;;;;5015182;28;20069;-69
2022/11/19 08:36:09;;;;;;;11.10;6.93;;;-0.50;99.90;;;;;;5013059;28;20490;-69
2022/11/19 08:38:35;;;;;;;12.75;7.78;;;-0.50;99.90;;;;;;5013419;28;20107;-69
2022/11/19 08:43:44;;;;;;;11.52;7.30;;;-0.40;99.90;;;;;;5015032;28;20054;-69
2022/11/19 08:46:10;;;;;;;12.40;7.32;;;-0.30;99.90;;;;;;5014448;28;20045;-69
2022/11/19 08:48:35;;;;;;;10.30;6.45;;;-0.30;99.90;;;;;;5015356;28;20037;-69
2022/11/19 08:51:06;;;;;;;12.18;7.78;;;-0.20;99.90;;;;;;5015030;28;20113;-70
2022/11/19 08:53:32;;;;;;;13.48;8.38;;;-0.20;99.90;;;;;;5015685;28;20076;-69
2022/11/19 08:55:57;;;;;;;11.13;7.28;;;-0.20;99.90;;;;;;5015289;28;20160;-69
2022/11/19 08:58:23;;;;;;;11.20;7.68;;;-0.10;99.90;;;;;;5013548;28;20465;-69
2022/11/19 09:00:50;;;;;;;11.40;6.45;;;0.00;99.90;;;;;;5015416;28;20045;-69
2022/11/19 09:03:16;;;;;;;11.68;6.43;;;-0.10;99.90;;;;;;5015110;28;20136;-69
2022/11/19 09:05:41;;;;;;;12.10;6.63;;;0.10;99.90;;;;;;5015290;28;20128;-69
2022/11/19 09:08:07;;;;;;;10.50;6.07;;;0.20;99.90;;;;;;5011952;28;20489;-69
2022/11/19 09:10:33;;;;;;;11.50;6.90;;;0.30;99.90;;;;;;5016257;28;20034;-69
2022/11/19 09:13:03;;;;;;;13.80;9.02;;;0.30;99.90;;;;;;5016205;28;20038;-69
2022/11/19 09:15:29;;;;;;;11.27;6.93;;;0.30;99.90;;;;;;5014156;28;20482;-69
2022/11/19 09:17:55;;;;;;;10.50;6.28;;;0.30;99.90;;;;;;5014389;28;20050;-69
2022/11/19 09:20:21;;;;;;;11.43;6.85;;;0.40;99.90;;;;;;5016333;28;20121;-69
2022/11/19 09:22:46;;;;;;;10.68;6.50;;;0.40;99.90;;;;;;5014668;28;20065;-69
2022/11/19 09:25:12;;;;;;;11.63;7.15;;;0.40;99.90;;;;;;5015902;28;20042;-69
2022/11/19 09:27:37;;;;;;;10.95;6.45;;;0.40;99.90;;;;;;5014487;28;20042;-69
2022/11/19 09:30:05;;;;;;;11.00;6.68;;;0.50;99.90;;;;;;4994769;28;20494;-69
2022/11/19 09:32:31;;;;;;;12.00;7.10;;;0.60;99.90;;;;;;5002702;28;20034;-69
2022/11/19 09:34:56;;;;;;;11.05;6.53;;;0.60;99.90;;;;;;5016003;28;20129;-69
2022/11/19 09:37:22;;;;;;;11.75;7.28;;;0.70;99.90;;;;;;4996934;28;20104;-69
2022/11/19 09:39:48;;;;;;;12.00;6.80;;;0.80;99.90;;;;;;5012607;28;20050;-69
2022/11/19 09:42:15;;;;;;;13.90;7.03;;;0.90;99.90;;;;;;5016029;28;20042;-69
2022/11/19 09:44:49;;;;;;;12.77;7.47;;;0.90;99.90;;;;;;5013196;28;20041;-69
2022/11/19 09:47:35;;;;;;;12.10;6.63;;;0.90;99.90;;;;;;5014487;28;20042;-69
2022/11/19 09:50:04;;;;;;;11.00;6.28;;;1.20;99.90;;;;;;5012435;28;20506;-69
2022/11/19 09:52:34;;;;;;;11.15;6.72;;;1.20;99.90;;;;;;5012427;28;20038;-69
2022/11/19 09:55:01;;;;;;;11.10;6.90;;;1.30;99.90;;;;;;5014420;28;20505;-68
2022/11/19 09:57:46;;;;;;;10.98;6.78;;;1.30;99.90;;;;;;5013638;28;20046;-69
2022/11/19 10:00:21;;;;;;;11.50;6.68;;;1.20;99.90;;;;;;5014319;28;20034;-69
2022/11/19 10:02:47;;;;;;;12.63;7.13;;;1.20;99.90;;;;;;5015281;28;20042;-69
2022/11/19 10:05:15;;;;;;;12.02;7.18;;;1.20;99.90;;;;;;5015112;28;20382;-69
2022/11/19 10:07:58;;;;;;;11.10;6.28;;;1.20;99.90;;;;;;5007782;28;20042;-69
2022/11/19 10:11:19;;;;;;;12.38;6.47;;;1.30;99.90;;;;;;5009939;28;20046;-69
2022/11/19 10:14:07;;;;;;;11.15;6.47;;;1.50;99.90;;;;;;4973598;28;20050;-69
2022/11/19 10:17:00;;;;;;;10.00;5.45;;;1.50;99.90;;;;;;5012198;28;20045;-69
2022/11/19 10:19:26;;;;;;;10.63;6.03;;;1.60;99.90;;;;;;5013461;28;20046;-68
2022/11/19 10:22:19;;;;;;;10.90;6.38;;;1.90;99.90;;;;;;5012837;28;20521;-69
2022/11/19 10:25:00;;;;;;;10.38;6.22;;;1.80;99.90;;;;;;5009560;28;20046;-69
2022/11/19 10:27:43;;;;;;;9.40;5.28;;;1.70;99.90;;;;;;5005353;28;20049;-69
2022/11/19 10:30:16;;;;;;;10.75;6.60;;;1.80;99.90;;;;;;5013651;28;20050;-69
2022/11/19 10:32:54;;;;;;;10.75;5.90;;;1.90;99.90;;;;;;4995809;28;20037;-68
2022/11/19 10:35:27;;;;;;;13.23;6.50;;;1.90;99.90;;;;;;5027494;28;20041;-69
2022/11/19 10:38:00;;;;;;;10.50;5.90;;;2.00;99.90;;;;;;5014305;28;20054;-68
2022/11/19 10:40:33;;;;;;;8.70;4.75;;;2.00;99.90;;;;;;5010414;28;20038;-68
2022/11/19 10:43:37;;;;;;;11.30;5.65;;;2.20;99.90;;;;;;5008183;28;20148;-68
2022/11/19 10:46:07;;;;;;;11.68;6.07;;;2.40;99.90;;;;;;4994053;28;20077;-69
2022/11/19 10:48:42;;;;;;;9.80;5.88;;;2.50;99.90;;;;;;5014347;28;20034;-68
2022/11/19 10:51:25;;;;;;;10.05;5.68;;;2.50;99.90;;;;;;5013118;28;20087;-69
2022/11/19 10:53:53;;;;;;;11.02;5.90;;;2.60;99.90;;;;;;5013719;28;20057;-68
2022/11/19 10:56:33;;;;;;;10.15;5.57;;;2.50;99.90;;;;;;4994179;28;20058;-68
2022/11/19 10:59:19;;;;;;;8.88;5.35;;;2.50;99.90;;;;;;4994611;28;20090;-69
2022/11/19 11:01:55;;;;;;;10.40;6.15;;;2.50;99.90;;;;;;5007612;28;20042;-68
2022/11/19 11:04:23;;;;;;;10.55;6.45;;;2.50;99.90;;;;;;5010306;28;20061;-68
2022/11/19 11:06:58;;;;;;;9.82;6.38;;;2.60;99.90;;;;;;5004982;28;20080;-69
2022/11/19 11:09:39;;;;;;;11.20;6.00;;;2.70;99.90;;;;;;4999927;28;20085;-69
2022/11/19 11:15:18;;;;;;;10.23;5.80;;;2.50;99.90;;;;;;5002506;28;20038;-68
2022/11/19 11:17:46;;;;;;;10.05;5.30;;;2.40;99.90;;;;;;5022148;28;20069;-68
2022/11/19 11:20:17;;;;;;;9.25;5.30;;;2.40;99.90;;;;;;5008745;28;20039;-69
2022/11/19 11:22:45;;;;;;;10.23;5.40;;;2.40;99.90;;;;;;5012565;28;20121;-68
2022/11/19 11:25:22;;;;;;;9.85;5.55;;;2.50;99.90;;;;;;5011376;28;20490;-69
2022/11/19 11:28:19;;;;;;;10.07;5.28;;;2.40;99.90;;;;;;5012687;28;20123;-69
2022/11/19 11:31:04;;;;;;;10.20;5.30;;;2.50;99.90;;;;;;5013375;28;20040;-68
2022/11/19 11:33:36;;;;;;;10.18;5.07;;;2.50;99.90;;;;;;5011765;28;20671;-68
2022/11/19 11:36:11;;;;;;;9.23;5.47;;;2.50;99.90;;;;;;5012732;28;20048;-68
2022/11/19 11:38:41;;;;;;;10.32;5.90;;;2.50;99.90;;;;;;5010902;28;20056;-68
2022/11/19 11:41:09;;;;;;;9.48;4.57;;;2.50;99.90;;;;;;5008017;28;20037;-68
2022/11/19 11:43:39;;;;;;;8.98;5.22;;;2.50;99.90;;;;;;5005772;28;20042;-68
2022/11/19 11:46:08;;;;;;;10.07;5.10;;;2.50;99.90;;;;;;5002879;28;20042;-69
2022/11/19 11:48:44;;;;;;;10.00;5.47;;;2.40;99.90;;;;;;5007142;28;20487;-68
2022/11/19 11:51:35;;;;;;;10.43;5.63;;;2.50;99.90;;;;;;5004491;28;20482;-69
2022/11/19 11:54:20;;;;;;;9.18;5.22;;;2.40;99.90;;;;;;5004864;28;20046;-68
2022/11/19 11:56:46;;;;;;;9.45;5.20;;;2.40;99.90;;;;;;5012275;28;20498;-69
2022/11/19 11:59:24;;;;;;;9.30;5.35;;;2.50;99.90;;;;;;5011478;28;20069;-68
2022/11/19 12:01:55;;;;;;;9.77;6.13;;;2.50;99.90;;;;;;4990414;28;20045;-68
2022/11/19 12:04:22;;;;;;;10.00;5.40;;;2.50;99.90;;;;;;5010580;28;20077;-68
2022/11/19 12:06:55;;;;;;;9.88;5.50;;;2.50;99.90;;;;;;5012428;28;20034;-69
2022/11/19 12:09:26;;;;;;;10.50;5.38;;;2.50;99.90;;;;;;5010931;28;20096;-68
2022/11/19 12:12:01;;;;;;;9.77;5.38;;;2.50;99.90;;;;;;5012164;28;20045;-68
2022/11/19 12:14:39;;;;;;;8.55;4.57;;;2.60;99.90;;;;;;4992363;28;20048;-69
2022/11/19 12:17:05;;;;;;;9.80;4.38;;;2.50;99.90;;;;;;5011743;28;20034;-69
2022/11/19 12:19:42;;;;;;;8.07;4.25;;;2.60;99.90;;;;;;5011490;28;20049;-68
2022/11/19 12:22:28;;;;;;;10.13;5.15;;;2.60;99.90;;;;;;5011932;28;20042;-69
2022/11/19 12:25:19;;;;;;;9.10;5.32;;;2.60;99.90;;;;;;5011841;28;20052;-69
2022/11/19 12:28:13;;;;;;;8.30;4.68;;;2.70;99.90;;;;;;5012370;28;20065;-69
2022/11/19 12:30:41;;;;;;;8.13;4.07;;;2.70;99.90;;;;;;5012622;28;20041;-69
2022/11/19 12:33:16;;;;;;;8.20;4.30;;;2.70;99.90;;;;;;5011368;28;20042;-68
2022/11/19 12:36:12;;;;;;;9.05;4.45;;;2.80;99.90;;;;;;5007265;28;20073;-69
2022/11/19 12:38:42;;;;;;;8.77;4.43;;;2.80;99.90;;;;;;5009700;28;20053;-68
2022/11/19 12:41:45;;;;;;;8.95;4.50;;;2.70;99.90;;;;;;5012267;28;20045;-68
2022/11/19 12:44:29;;;;;;;9.95;4.72;;;2.70;99.90;;;;;;5011604;28;20045;-69
2022/11/19 12:47:02;;;;;;;8.27;4.22;;;2.70;99.90;;;;;;5012238;28;20034;-69
2022/11/19 12:49:37;;;;;;;10.15;4.43;;;2.90;99.90;;;;;;5012198;28;20053;-69
2022/11/19 12:52:11;;;;;;;8.88;4.57;;;2.90;99.90;;;;;;5010298;28;20490;-69
2022/11/19 12:54:40;;;;;;;8.57;4.60;;;2.90;99.90;;;;;;5011076;28;20117;-69
2022/11/19 12:57:24;;;;;;;23.38;21.13;;;2.80;99.90;;;;;;4997375;28;20495;-69
2022/11/19 13:00:18;;;;;;;8.23;4.50;;;2.80;99.90;;;;;;4995213;28;20034;-69
2022/11/19 13:03:07;;;;;;;9.15;4.95;;;2.90;99.90;;;;;;5012491;28;20088;-69
2022/11/19 13:05:44;;;;;;;9.15;5.50;;;2.90;99.90;;;;;;5012090;28;20509;-69
2022/11/19 13:08:42;;;;;;;8.93;4.60;;;3.00;99.90;;;;;;5016355;28;20426;-69
2022/11/19 13:11:09;;;;;;;8.70;4.65;;;3.00;99.90;;;;;;5015206;28;20046;-69
2022/11/19 13:13:38;;;;;;;9.00;4.68;;;3.00;99.90;;;;;;5015474;28;20502;-69
2022/11/19 13:16:16;;;;;;;8.68;4.18;;;3.00;99.90;;;;;;5015900;28;20033;-69
2022/11/19 13:18:46;;;;;;;9.73;4.85;;;3.10;99.90;;;;;;5016342;28;20049;-69
2022/11/19 13:21:22;;;;;;;8.70;4.38;;;3.10;99.90;;;;;;5016037;28;20088;-69
2022/11/19 13:23:49;;;;;;;8.77;4.38;;;3.00;99.90;;;;;;5015477;28;20046;-69
2022/11/19 13:26:19;;;;;;;8.43;4.20;;;3.00;99.90;;;;;;5018848;28;20049;-69
2022/11/19 13:29:08;;;;;;;9.48;4.30;;;3.10;99.90;;;;;;5013230;28;20037;-75
2022/11/19 13:31:57;;;;;;;9.90;5.38;;;3.10;99.90;;;;;;4994499;28;20129;-69
2022/11/19 13:34:36;;;;;;;9.27;4.70;;;3.10;99.90;;;;;;4996037;28;20073;-69
2022/11/19 13:37:05;;;;;;;9.32;4.45;;;3.00;99.90;;;;;;5011568;28;20050;-69